Kornett — CQEJ — position and weather

sailwx.info

Track history (hours):
 
Tides and Currents Weather Stations Pressure Air Temp Water Temp Dewpoint Dewpoint Depression Visibility Wind Speed Wind Dir Waves Ship Positions

Kornett

Last reported at 2018-Jun-22 14:56 UTC. Time now 2018-Jun-22 14:58 UTC.
Position N 28°58' W 013°32'.

Length 135 m; draft 7.4 m.

Type: Ship (hazmat cat A). MMSI: 255805686.

Date/timePositionNaut miles runAvg speedWind from/ knotsBaromVisibWave heightAir tempDewpointWater temp
2018-Jun-22 14:56N 28°58' W 013°32'0 0.8
2018-Jun-22 14:30N 28°58' W 013°32'3 5.4
2018-Jun-22 13:59N 28°55' W 013°33'815.3
2018-Jun-22 13:29N 28°48' W 013°37'816.1
2018-Jun-22 13:00N 28°41' W 013°41'16 1.9
2018-Jun-22 04:28N 28°27' W 013°49'1410.6
2018-Jun-22 03:09N 28°13' W 013°52'1 5.3
2018-Jun-22 03:00N 28°14' W 013°51'611.5
2018-Jun-22 02:30N 28°09' W 013°54'611.2
2018-Jun-22 02:00N 28°05' W 013°59'3 6.3
2018-Jun-22 01:30N 28°05' W 014°03'510.7
2018-Jun-22 01:01N 28°04' W 014°09'611.9
2018-Jun-22 00:29N 28°05' W 014°02'4 7.5
2018-Jun-22 00:00N 28°05' W 014°06'611.5
2018-Jun-21 23:30N 28°02' W 014°12'611.2
2018-Jun-21 23:00N 28°00' W 014°18'611.3
2018-Jun-21 22:30N 27°59' W 014°24'711.8
2018-Jun-21 21:57N 27°59' W 014°31'512.4
2018-Jun-21 21:30N 27°60' W 014°38'612.6
2018-Jun-21 21:00N 28°01' W 014°44'612.4
2018-Jun-21 20:30N 28°03' W 014°51'612.1
2018-Jun-21 20:00N 28°04' W 014°58'612.3
2018-Jun-21 19:30N 28°06' W 015°05'612.2
2018-Jun-21 19:00N 28°08' W 015°11'612.0
2018-Jun-21 18:31N 28°10' W 015°17'612.0
2018-Jun-21 18:00N 28°12' W 015°24'612.2
2018-Jun-21 17:29N 28°14' W 015°31'612.0
2018-Jun-21 17:00N 28°16' W 015°37'611.9
2018-Jun-21 16:31N 28°17' W 015°43'611.7
2018-Jun-21 16:00N 28°19' W 015°50'611.9
2018-Jun-21 15:30N 28°21' W 015°57'611.7
2018-Jun-21 15:00N 28°22' W 016°03'815.2
2018-Jun-21 14:30N 28°26' W 016°10'4 8.1
2018-Jun-21 13:58N 28°29' W 016°14'0 0.0
2018-Jun-21 13:28N 28°29' W 016°14'0 0.0
2018-Jun-21 12:58N 28°29' W 016°14'0 0.0
2018-Jun-21 12:28N 28°29' W 016°14'0 0.0
2018-Jun-21 11:58N 28°29' W 016°14'0 0.0
2018-Jun-21 11:28N 28°29' W 016°14'0 0.0
2018-Jun-21 10:58N 28°29' W 016°14'0 0.0
2018-Jun-21 10:28N 28°29' W 016°14'0 0.0
2018-Jun-21 09:58N 28°29' W 016°14'0 0.0
2018-Jun-21 09:28N 28°29' W 016°14'0 0.0
2018-Jun-21 08:52N 28°29' W 016°14'0 0.0
2018-Jun-21 08:28N 28°29' W 016°14'0 0.0
2018-Jun-21 07:58N 28°29' W 016°14'0 0.0
2018-Jun-21 07:28N 28°29' W 016°14'0 0.0
2018-Jun-21 06:58N 28°29' W 016°14'0 0.0
2018-Jun-21 06:28N 28°29' W 016°14'0 0.0
2018-Jun-21 05:44N 28°29' W 016°14'0 0.1
2018-Jun-21 05:30N 28°29' W 016°14'2 2.8
2018-Jun-21 04:57N 28°28' W 016°13'510.6
2018-Jun-21 04:30N 28°26' W 016°08'612.1
2018-Jun-21 04:00N 28°28' W 016°01'612.6
2018-Jun-21 03:30N 28°31' W 015°55'612.5
2018-Jun-21 03:00N 28°34' W 015°49'612.1
2018-Jun-21 02:30N 28°38' W 015°44'611.9
2018-Jun-21 02:00N 28°43' W 015°40'611.1
2018-Jun-21 01:30N 28°47' W 015°35'5 9.9
2018-Jun-21 01:00N 28°47' W 015°30'510.1
2018-Jun-21 00:30N 28°45' W 015°25'510.3
2018-Jun-21 00:00N 28°43' W 015°19'5 9.6
2018-Jun-20 23:30N 28°39' W 015°17'510.3
2018-Jun-20 23:00N 28°34' W 015°15'510.4
2018-Jun-20 22:30N 28°29' W 015°13'5 9.9
2018-Jun-20 22:00N 28°24' W 015°13'510.3
2018-Jun-20 21:30N 28°19' W 015°16'510.4
2018-Jun-20 21:00N 28°14' W 015°18'510.3
2018-Jun-20 20:30N 28°10' W 015°20'5 9.1
2018-Jun-20 20:00N 28°07' W 015°24'1 2.5
2018-Jun-20 19:30N 28°08' W 015°25'0 0.0
2018-Jun-20 19:00N 28°08' W 015°25'0 0.0
2018-Jun-20 18:30N 28°08' W 015°25'0 0.0
2018-Jun-20 18:00N 28°08' W 015°25'0 0.0
2018-Jun-20 17:30N 28°08' W 015°25'0 0.0
2018-Jun-20 16:51N 28°08' W 015°25'0 0.0
2018-Jun-20 16:21N 28°08' W 015°25'0 0.0
2018-Jun-20 15:51N 28°08' W 015°25'0 0.0
2018-Jun-20 15:24N 28°08' W 015°25'0 0.0
2018-Jun-20 14:54N 28°08' W 015°25'0 0.0
2018-Jun-20 14:24N 28°08' W 015°25'0 0.0
2018-Jun-20 13:54N 28°08' W 015°25'0 0.0
2018-Jun-20 13:21N 28°08' W 015°25'0 0.0
2018-Jun-20 13:00N 28°08' W 015°25'0 0.0
2018-Jun-20 12:30N 28°08' W 015°25'0 0.0
2018-Jun-20 12:00N 28°08' W 015°25'0 0.0
2018-Jun-20 11:30N 28°08' W 015°25'0 0.0
2018-Jun-20 11:00N 28°08' W 015°25'0 0.0
2018-Jun-20 10:30N 28°08' W 015°25'0 0.0
2018-Jun-20 10:00N 28°08' W 015°25'0 0.0
2018-Jun-20 09:29N 28°08' W 015°25'0 0.0
2018-Jun-20 08:59N 28°08' W 015°25'0 0.0
2018-Jun-20 08:30N 28°08' W 015°25'0 0.0
2018-Jun-20 08:00N 28°08' W 015°25'0 0.0
2018-Jun-20 07:30N 28°08' W 015°25'0 0.0
2018-Jun-20 07:00N 28°08' W 015°25'0 0.0
2018-Jun-20 06:30N 28°08' W 015°25'0 0.0
2018-Jun-20 06:00N 28°08' W 015°25'0 0.3
2018-Jun-20 05:27N 28°08' W 015°25'1 3.0
2018-Jun-20 05:00N 28°07' W 015°24'5 9.5
2018-Jun-20 04:30N 28°10' W 015°19'611.9
2018-Jun-20 04:00N 28°14' W 015°14'612.2
2018-Jun-20 03:30N 28°18' W 015°09'714.1
2018-Jun-20 03:00N 28°23' W 015°04'714.9
2018-Jun-20 02:30N 28°28' W 014°58'714.8
2018-Jun-20 02:00N 28°34' W 014°52'714.4
2018-Jun-20 01:30N 28°39' W 014°46'714.0
2018-Jun-20 01:00N 28°44' W 014°41'714.1
2018-Jun-20 00:31N 28°49' W 014°35'714.4
2018-Jun-20 00:00N 28°54' W 014°29'714.5
2018-Jun-19 23:29N 28°59' W 014°23'714.4
2018-Jun-19 23:00N 29°04' W 014°17'714.4
2018-Jun-19 22:29N 29°09' W 014°11'714.6
2018-Jun-19 22:00N 29°14' W 014°05'714.9
2018-Jun-19 21:30N 29°19' W 013°59'815.1
2018-Jun-19 21:01N 29°24' W 013°53'814.8
2018-Jun-19 20:30N 29°30' W 013°47'814.3
2018-Jun-19 19:58N 29°35' W 013°40'814.2
2018-Jun-19 19:23N 29°41' W 013°34'514.1
2018-Jun-19 19:00N 29°45' W 013°30'1615.0
2018-Jun-19 17:58N 29°56' W 013°17'52514.6
2018-Jun-18 06:00N 35°57' W 005°43'815.5
2018-Jun-18 05:30N 35°58' W 005°34'815.1
2018-Jun-18 05:00N 35°60' W 005°25'714.3
2018-Jun-18 04:30N 36°01' W 005°16'20114.1
2018-Jun-17 14:12N 37°03' W 001°18'414.6
2018-Jun-17 13:57N 37°05' W 001°14'714.9
2018-Jun-17 13:30N 37°10' W 001°08'714.8
2018-Jun-17 13:00N 37°15' W 001°01'714.7
2018-Jun-17 12:30N 37°20' W 000°54'714.7
2018-Jun-17 12:00N 37°24' W 000°47'814.9
2018-Jun-17 11:30N 37°29' W 000°40'815.1
2018-Jun-17 11:00N 37°35' W 000°33'815.2
2018-Jun-17 10:30N 37°41' W 000°29'814.9
2018-Jun-17 09:58N 37°48' W 000°23'714.9
2018-Jun-17 09:30N 37°53' W 000°18'714.7
2018-Jun-17 09:00N 37°60' W 000°13'714.7
2018-Jun-17 08:30N 38°06' W 000°08'1014.9
2018-Jun-17 07:50N 38°14' W 000°01'515.0
2018-Jun-17 07:30N 38°18' E 000°02'815.1
2018-Jun-17 07:00N 38°25' E 000°08'815.7
2018-Jun-17 06:29N 38°32' E 000°14'816.5
2018-Jun-17 06:00N 38°38' E 000°19'813.5
2018-Jun-17 05:25N 38°46' E 000°21'614.5
2018-Jun-17 04:59N 38°51' E 000°17'3915.0
2018-Jun-17 02:23N 39°23' W 000°13'514.1
2018-Jun-17 02:00N 39°26' W 000°18'1 0.1
2018-Jun-16 15:24N 39°26' W 000°20'1 3.6
2018-Jun-16 15:01N 39°26' W 000°18'5 9.5
2018-Jun-16 14:30N 39°29' W 000°13'12011.2
2018-Jun-16 03:49N 40°57' E 001°34'516.7
2018-Jun-16 03:30N 41°00' E 001°39'816.9
2018-Jun-16 03:00N 41°05' E 001°48'816.9
2018-Jun-16 02:30N 41°10' E 001°58'917.5
2018-Jun-16 02:00N 41°14' E 002°07'5 9.3
2018-Jun-16 01:30N 41°19' E 002°09'1 1.2
2018-Jun-16 01:00N 41°18' E 002°09'0 0.0
2018-Jun-16 00:30N 41°18' E 002°09'0 0.0
2018-Jun-16 00:00N 41°18' E 002°09'0 0.0
2018-Jun-15 23:30N 41°18' E 002°09'0 0.0
2018-Jun-15 23:00N 41°18' E 002°09'0 0.0
2018-Jun-15 22:30N 41°18' E 002°09'0 0.0
2018-Jun-15 22:00N 41°18' E 002°09'0 0.0
2018-Jun-15 21:30N 41°18' E 002°09'0 0.0
2018-Jun-15 21:00N 41°18' E 002°09'0 0.0
2018-Jun-15 20:30N 41°18' E 002°09'0 0.0
2018-Jun-15 20:00N 41°18' E 002°09'0 0.0
2018-Jun-15 19:30N 41°18' E 002°09'0 0.0
2018-Jun-15 19:00N 41°18' E 002°09'0 0.0
2018-Jun-15 18:30N 41°18' E 002°09'0 0.0
2018-Jun-15 18:00N 41°18' E 002°09'0 0.0
2018-Jun-15 17:30N 41°18' E 002°09'0 0.0
2018-Jun-15 17:00N 41°18' E 002°09'0 0.0
2018-Jun-15 16:30N 41°18' E 002°09'0 0.0
2018-Jun-15 16:00N 41°18' E 002°09'0 0.0
2018-Jun-15 15:30N 41°18' E 002°09'0 0.0
2018-Jun-15 15:00N 41°18' E 002°09'0 0.0
2018-Jun-15 14:30N 41°18' E 002°09'0 0.0
2018-Jun-15 14:00N 41°18' E 002°09'0 0.0
2018-Jun-15 13:30N 41°18' E 002°09'0 0.0
2018-Jun-15 13:00N 41°18' E 002°09'0 0.0
2018-Jun-15 12:30N 41°18' E 002°09'0 0.0
2018-Jun-15 12:00N 41°18' E 002°09'0 0.0
2018-Jun-15 11:30N 41°18' E 002°09'0 0.0
2018-Jun-15 11:00N 41°18' E 002°09'2 4.4
2018-Jun-15 10:31N 41°18' E 002°12'1 2.8
2018-Jun-15 10:00N 41°20' E 002°12'0 0.1
2018-Jun-15 09:30N 41°20' E 002°12'0 0.0
2018-Jun-15 09:00N 41°20' E 002°12'0 0.0
2018-Jun-15 08:30N 41°20' E 002°12'0 0.0
2018-Jun-15 08:00N 41°20' E 002°12'0 0.0
2018-Jun-15 07:30N 41°20' E 002°12'0 0.0
2018-Jun-15 07:00N 41°20' E 002°12'0 0.0
2018-Jun-15 06:24N 41°20' E 002°12'0 0.0
2018-Jun-15 06:00N 41°20' E 002°12'0 0.0
2018-Jun-15 05:30N 41°20' E 002°12'0 0.0
2018-Jun-15 05:00N 41°20' E 002°12'0 0.0
2018-Jun-15 04:30N 41°20' E 002°12'0 0.0
2018-Jun-15 04:00N 41°20' E 002°12'0 0.0
2018-Jun-15 03:30N 41°20' E 002°12'0 0.0
2018-Jun-15 03:00N 41°20' E 002°12'0 0.0
2018-Jun-15 02:30N 41°20' E 002°12'0 0.0
2018-Jun-15 02:00N 41°20' E 002°12'0 0.0
2018-Jun-15 01:30N 41°20' E 002°12'0 0.0
2018-Jun-15 01:00N 41°20' E 002°12'0 0.0
2018-Jun-15 00:30N 41°20' E 002°12'0 0.0
2018-Jun-15 00:00N 41°20' E 002°12'0 0.0
2018-Jun-14 23:30N 41°20' E 002°12'0 0.0
2018-Jun-14 23:00N 41°20' E 002°12'0 0.0
2018-Jun-14 22:30N 41°20' E 002°12'1 1.1
2018-Jun-14 22:00N 41°19' E 002°12'4 8.7
2018-Jun-14 21:30N 41°15' E 002°10'816.4
2018-Jun-14 21:00N 41°13' E 001°59'917.4
2018-Jun-14 20:30N 41°10' E 001°49'917.0
2018-Jun-14 19:59N 41°08' E 001°37'123 5.6
2018-Jun-13 21:54N 39°33' W 000°07'1013.1
2018-Jun-13 21:11N 39°25' W 000°14'312.9
2018-Jun-13 20:57N 39°25' W 000°17'2 3.7
2018-Jun-13 20:28N 39°26' W 000°19'0 0.0
2018-Jun-13 19:49N 39°26' W 000°19'0 0.0
2018-Jun-13 19:19N 39°26' W 000°19'0 0.0
2018-Jun-13 18:58N 39°26' W 000°19'0 0.0
2018-Jun-13 18:28N 39°26' W 000°19'0 0.0
2018-Jun-13 17:55N 39°26' W 000°19'0 0.0
2018-Jun-13 17:28N 39°26' W 000°19'0 0.0
2018-Jun-13 16:55N 39°26' W 000°19'0 0.0
2018-Jun-13 16:25N 39°26' W 000°19'0 0.0
2018-Jun-13 15:55N 39°26' W 000°19'0 0.2
2018-Jun-13 13:49N 39°26' W 000°19'0 0.0
2018-Jun-13 13:19N 39°26' W 000°19'0 0.0
2018-Jun-13 12:55N 39°26' W 000°19'0 0.0
2018-Jun-13 12:25N 39°26' W 000°19'0 0.0
2018-Jun-13 11:55N 39°26' W 000°19'0 0.0
2018-Jun-13 11:19N 39°26' W 000°19'0 0.0
2018-Jun-13 10:55N 39°26' W 000°19'0 0.0
2018-Jun-13 09:49N 39°26' W 000°19'0 0.0
2018-Jun-13 09:25N 39°26' W 000°19'0 0.0
2018-Jun-13 07:49N 39°26' W 000°19'0 0.0
2018-Jun-13 07:25N 39°26' W 000°19'0 0.0
2018-Jun-13 06:55N 39°26' W 000°19'0 0.0
2018-Jun-13 06:19N 39°26' W 000°19'0 0.0
2018-Jun-13 01:25N 39°26' W 000°19'0 0.0
2018-Jun-13 00:58N 39°26' W 000°19'0 0.0
2018-Jun-13 00:19N 39°26' W 000°19'0 0.0
2018-Jun-12 23:55N 39°26' W 000°19'0 0.0
2018-Jun-12 23:28N 39°26' W 000°19'0 1.0
2018-Jun-12 23:00N 39°26' W 000°19'2 4.6
2018-Jun-12 22:30N 39°25' W 000°17'2 3.7
2018-Jun-12 22:00N 39°24' W 000°15'5612.5
2018-Jun-12 17:32N 38°36' E 000°22'014.3
2018-Jun-12 17:30N 38°35' E 000°22'714.2
2018-Jun-12 17:00N 38°29' E 000°16'714.4
2018-Jun-12 16:30N 38°23' E 000°11'714.7
2018-Jun-12 16:00N 38°17' E 000°06'714.6
2018-Jun-12 15:30N 38°11' E 000°01'714.7
2018-Jun-12 15:01N 38°05' W 000°04'  
Track history (hours):
 
Tides and Currents Weather Stations Pressure Air Temp Water Temp Dewpoint Dewpoint Depression Visibility Wind Speed Wind Dir Waves Ship Positions

Kornett

Last reported at 2018-Jun-22 14:56 UTC. Time now 2018-Jun-22 14:58 UTC.
Position N 28°58' W 013°32'.

Length 135 m; draft 7.4 m.

Type: Ship (hazmat cat A). MMSI: 255805686.

Date/timePositionNaut miles runAvg speedWind from/ knotsBaromVisibWave heightAir tempDewpointWater temp
2018-Jun-22 14:56N 28°58' W 013°32'0 0.8
2018-Jun-22 14:30N 28°58' W 013°32'3 5.4
2018-Jun-22 13:59N 28°55' W 013°33'815.3
2018-Jun-22 13:29N 28°48' W 013°37'816.1
2018-Jun-22 13:00N 28°41' W 013°41'16 1.9
2018-Jun-22 04:28N 28°27' W 013°49'1410.6
2018-Jun-22 03:09N 28°13' W 013°52'1 5.3
2018-Jun-22 03:00N 28°14' W 013°51'611.5
2018-Jun-22 02:30N 28°09' W 013°54'611.2
2018-Jun-22 02:00N 28°05' W 013°59'3 6.3
2018-Jun-22 01:30N 28°05' W 014°03'510.7
2018-Jun-22 01:01N 28°04' W 014°09'611.9
2018-Jun-22 00:29N 28°05' W 014°02'4 7.5
2018-Jun-22 00:00N 28°05' W 014°06'611.5
2018-Jun-21 23:30N 28°02' W 014°12'611.2
2018-Jun-21 23:00N 28°00' W 014°18'611.3
2018-Jun-21 22:30N 27°59' W 014°24'711.8
2018-Jun-21 21:57N 27°59' W 014°31'512.4
2018-Jun-21 21:30N 27°60' W 014°38'612.6
2018-Jun-21 21:00N 28°01' W 014°44'612.4
2018-Jun-21 20:30N 28°03' W 014°51'612.1
2018-Jun-21 20:00N 28°04' W 014°58'612.3
2018-Jun-21 19:30N 28°06' W 015°05'612.2
2018-Jun-21 19:00N 28°08' W 015°11'612.0
2018-Jun-21 18:31N 28°10' W 015°17'612.0
2018-Jun-21 18:00N 28°12' W 015°24'612.2
2018-Jun-21 17:29N 28°14' W 015°31'612.0
2018-Jun-21 17:00N 28°16' W 015°37'611.9
2018-Jun-21 16:31N 28°17' W 015°43'611.7
2018-Jun-21 16:00N 28°19' W 015°50'611.9
2018-Jun-21 15:30N 28°21' W 015°57'611.7
2018-Jun-21 15:00N 28°22' W 016°03'815.2
2018-Jun-21 14:30N 28°26' W 016°10'4 8.1
2018-Jun-21 13:58N 28°29' W 016°14'0 0.0
2018-Jun-21 13:28N 28°29' W 016°14'0 0.0
2018-Jun-21 12:58N 28°29' W 016°14'0 0.0
2018-Jun-21 12:28N 28°29' W 016°14'0 0.0
2018-Jun-21 11:58N 28°29' W 016°14'0 0.0
2018-Jun-21 11:28N 28°29' W 016°14'0 0.0
2018-Jun-21 10:58N 28°29' W 016°14'0 0.0
2018-Jun-21 10:28N 28°29' W 016°14'0 0.0
2018-Jun-21 09:58N 28°29' W 016°14'0 0.0
2018-Jun-21 09:28N 28°29' W 016°14'0 0.0
2018-Jun-21 08:52N 28°29' W 016°14'0 0.0
2018-Jun-21 08:28N 28°29' W 016°14'0 0.0
2018-Jun-21 07:58N 28°29' W 016°14'0 0.0
2018-Jun-21 07:28N 28°29' W 016°14'0 0.0
2018-Jun-21 06:58N 28°29' W 016°14'0 0.0
2018-Jun-21 06:28N 28°29' W 016°14'0 0.0
2018-Jun-21 05:44N 28°29' W 016°14'0 0.1
2018-Jun-21 05:30N 28°29' W 016°14'2 2.8
2018-Jun-21 04:57N 28°28' W 016°13'510.6
2018-Jun-21 04:30N 28°26' W 016°08'612.1
2018-Jun-21 04:00N 28°28' W 016°01'612.6
2018-Jun-21 03:30N 28°31' W 015°55'612.5
2018-Jun-21 03:00N 28°34' W 015°49'612.1
2018-Jun-21 02:30N 28°38' W 015°44'611.9
2018-Jun-21 02:00N 28°43' W 015°40'611.1
2018-Jun-21 01:30N 28°47' W 015°35'5 9.9
2018-Jun-21 01:00N 28°47' W 015°30'510.1
2018-Jun-21 00:30N 28°45' W 015°25'510.3
2018-Jun-21 00:00N 28°43' W 015°19'5 9.6
2018-Jun-20 23:30N 28°39' W 015°17'510.3
2018-Jun-20 23:00N 28°34' W 015°15'510.4
2018-Jun-20 22:30N 28°29' W 015°13'5 9.9
2018-Jun-20 22:00N 28°24' W 015°13'510.3
2018-Jun-20 21:30N 28°19' W 015°16'510.4
2018-Jun-20 21:00N 28°14' W 015°18'510.3
2018-Jun-20 20:30N 28°10' W 015°20'5 9.1
2018-Jun-20 20:00N 28°07' W 015°24'1 2.5
2018-Jun-20 19:30N 28°08' W 015°25'0 0.0
2018-Jun-20 19:00N 28°08' W 015°25'0 0.0
2018-Jun-20 18:30N 28°08' W 015°25'0 0.0
2018-Jun-20 18:00N 28°08' W 015°25'0 0.0
2018-Jun-20 17:30N 28°08' W 015°25'0 0.0
2018-Jun-20 16:51N 28°08' W 015°25'0 0.0
2018-Jun-20 16:21N 28°08' W 015°25'0 0.0
2018-Jun-20 15:51N 28°08' W 015°25'0 0.0
2018-Jun-20 15:24N 28°08' W 015°25'0 0.0
2018-Jun-20 14:54N 28°08' W 015°25'0 0.0
2018-Jun-20 14:24N 28°08' W 015°25'0 0.0
2018-Jun-20 13:54N 28°08' W 015°25'0 0.0
2018-Jun-20 13:21N 28°08' W 015°25'0 0.0
2018-Jun-20 13:00N 28°08' W 015°25'0 0.0
2018-Jun-20 12:30N 28°08' W 015°25'0 0.0
2018-Jun-20 12:00N 28°08' W 015°25'0 0.0
2018-Jun-20 11:30N 28°08' W 015°25'0 0.0
2018-Jun-20 11:00N 28°08' W 015°25'0 0.0
2018-Jun-20 10:30N 28°08' W 015°25'0 0.0
2018-Jun-20 10:00N 28°08' W 015°25'0 0.0
2018-Jun-20 09:29N 28°08' W 015°25'0 0.0
2018-Jun-20 08:59N 28°08' W 015°25'0 0.0
2018-Jun-20 08:30N 28°08' W 015°25'0 0.0
2018-Jun-20 08:00N 28°08' W 015°25'0 0.0
2018-Jun-20 07:30N 28°08' W 015°25'0 0.0
2018-Jun-20 07:00N 28°08' W 015°25'0 0.0
2018-Jun-20 06:30N 28°08' W 015°25'0 0.0
2018-Jun-20 06:00N 28°08' W 015°25'0 0.3
2018-Jun-20 05:27N 28°08' W 015°25'1 3.0
2018-Jun-20 05:00N 28°07' W 015°24'5 9.5
2018-Jun-20 04:30N 28°10' W 015°19'611.9
2018-Jun-20 04:00N 28°14' W 015°14'612.2
2018-Jun-20 03:30N 28°18' W 015°09'714.1
2018-Jun-20 03:00N 28°23' W 015°04'714.9
2018-Jun-20 02:30N 28°28' W 014°58'714.8
2018-Jun-20 02:00N 28°34' W 014°52'714.4
2018-Jun-20 01:30N 28°39' W 014°46'714.0
2018-Jun-20 01:00N 28°44' W 014°41'714.1
2018-Jun-20 00:31N 28°49' W 014°35'714.4
2018-Jun-20 00:00N 28°54' W 014°29'714.5
2018-Jun-19 23:29N 28°59' W 014°23'714.4
2018-Jun-19 23:00N 29°04' W 014°17'714.4
2018-Jun-19 22:29N 29°09' W 014°11'714.6
2018-Jun-19 22:00N 29°14' W 014°05'714.9
2018-Jun-19 21:30N 29°19' W 013°59'815.1
2018-Jun-19 21:01N 29°24' W 013°53'814.8
2018-Jun-19 20:30N 29°30' W 013°47'814.3
2018-Jun-19 19:58N 29°35' W 013°40'814.2
2018-Jun-19 19:23N 29°41' W 013°34'514.1
2018-Jun-19 19:00N 29°45' W 013°30'1615.0
2018-Jun-19 17:58N 29°56' W 013°17'52514.6
2018-Jun-18 06:00N 35°57' W 005°43'815.5
2018-Jun-18 05:30N 35°58' W 005°34'815.1
2018-Jun-18 05:00N 35°60' W 005°25'714.3
2018-Jun-18 04:30N 36°01' W 005°16'20114.1
2018-Jun-17 14:12N 37°03' W 001°18'414.6
2018-Jun-17 13:57N 37°05' W 001°14'714.9
2018-Jun-17 13:30N 37°10' W 001°08'714.8
2018-Jun-17 13:00N 37°15' W 001°01'714.7
2018-Jun-17 12:30N 37°20' W 000°54'714.7
2018-Jun-17 12:00N 37°24' W 000°47'814.9
2018-Jun-17 11:30N 37°29' W 000°40'815.1
2018-Jun-17 11:00N 37°35' W 000°33'815.2
2018-Jun-17 10:30N 37°41' W 000°29'814.9
2018-Jun-17 09:58N 37°48' W 000°23'714.9
2018-Jun-17 09:30N 37°53' W 000°18'714.7
2018-Jun-17 09:00N 37°60' W 000°13'714.7
2018-Jun-17 08:30N 38°06' W 000°08'1014.9
2018-Jun-17 07:50N 38°14' W 000°01'515.0
2018-Jun-17 07:30N 38°18' E 000°02'815.1
2018-Jun-17 07:00N 38°25' E 000°08'815.7
2018-Jun-17 06:29N 38°32' E 000°14'816.5
2018-Jun-17 06:00N 38°38' E 000°19'813.5
2018-Jun-17 05:25N 38°46' E 000°21'614.5
2018-Jun-17 04:59N 38°51' E 000°17'3915.0
2018-Jun-17 02:23N 39°23' W 000°13'514.1
2018-Jun-17 02:00N 39°26' W 000°18'1 0.1
2018-Jun-16 15:24N 39°26' W 000°20'1 3.6
2018-Jun-16 15:01N 39°26' W 000°18'5 9.5
2018-Jun-16 14:30N 39°29' W 000°13'12011.2
2018-Jun-16 03:49N 40°57' E 001°34'516.7
2018-Jun-16 03:30N 41°00' E 001°39'816.9
2018-Jun-16 03:00N 41°05' E 001°48'816.9
2018-Jun-16 02:30N 41°10' E 001°58'917.5
2018-Jun-16 02:00N 41°14' E 002°07'5 9.3
2018-Jun-16 01:30N 41°19' E 002°09'1 1.2
2018-Jun-16 01:00N 41°18' E 002°09'0 0.0
2018-Jun-16 00:30N 41°18' E 002°09'0 0.0
2018-Jun-16 00:00N 41°18' E 002°09'0 0.0
2018-Jun-15 23:30N 41°18' E 002°09'0 0.0
2018-Jun-15 23:00N 41°18' E 002°09'0 0.0
2018-Jun-15 22:30N 41°18' E 002°09'0 0.0
2018-Jun-15 22:00N 41°18' E 002°09'0 0.0
2018-Jun-15 21:30N 41°18' E 002°09'0 0.0
2018-Jun-15 21:00N 41°18' E 002°09'0 0.0
2018-Jun-15 20:30N 41°18' E 002°09'0 0.0
2018-Jun-15 20:00N 41°18' E 002°09'0 0.0
2018-Jun-15 19:30N 41°18' E 002°09'0 0.0
2018-Jun-15 19:00N 41°18' E 002°09'0 0.0
2018-Jun-15 18:30N 41°18' E 002°09'0 0.0
2018-Jun-15 18:00N 41°18' E 002°09'0 0.0
2018-Jun-15 17:30N 41°18' E 002°09'0 0.0
2018-Jun-15 17:00N 41°18' E 002°09'0 0.0
2018-Jun-15 16:30N 41°18' E 002°09'0 0.0
2018-Jun-15 16:00N 41°18' E 002°09'0 0.0
2018-Jun-15 15:30N 41°18' E 002°09'0 0.0
2018-Jun-15 15:00N 41°18' E 002°09'0 0.0
2018-Jun-15 14:30N 41°18' E 002°09'0 0.0
2018-Jun-15 14:00N 41°18' E 002°09'0 0.0
2018-Jun-15 13:30N 41°18' E 002°09'0 0.0
2018-Jun-15 13:00N 41°18' E 002°09'0 0.0
2018-Jun-15 12:30N 41°18' E 002°09'0 0.0
2018-Jun-15 12:00N 41°18' E 002°09'0 0.0
2018-Jun-15 11:30N 41°18' E 002°09'0 0.0
2018-Jun-15 11:00N 41°18' E 002°09'2 4.4
2018-Jun-15 10:31N 41°18' E 002°12'1 2.8
2018-Jun-15 10:00N 41°20' E 002°12'0 0.1
2018-Jun-15 09:30N 41°20' E 002°12'0 0.0
2018-Jun-15 09:00N 41°20' E 002°12'0 0.0
2018-Jun-15 08:30N 41°20' E 002°12'0 0.0
2018-Jun-15 08:00N 41°20' E 002°12'0 0.0
2018-Jun-15 07:30N 41°20' E 002°12'0 0.0
2018-Jun-15 07:00N 41°20' E 002°12'0 0.0
2018-Jun-15 06:24N 41°20' E 002°12'0 0.0
2018-Jun-15 06:00N 41°20' E 002°12'0 0.0
2018-Jun-15 05:30N 41°20' E 002°12'0 0.0
2018-Jun-15 05:00N 41°20' E 002°12'0 0.0
2018-Jun-15 04:30N 41°20' E 002°12'0 0.0
2018-Jun-15 04:00N 41°20' E 002°12'0 0.0
2018-Jun-15 03:30N 41°20' E 002°12'0 0.0
2018-Jun-15 03:00N 41°20' E 002°12'0 0.0
2018-Jun-15 02:30N 41°20' E 002°12'0 0.0
2018-Jun-15 02:00N 41°20' E 002°12'0 0.0
2018-Jun-15 01:30N 41°20' E 002°12'0 0.0
2018-Jun-15 01:00N 41°20' E 002°12'0 0.0
2018-Jun-15 00:30N 41°20' E 002°12'0 0.0
2018-Jun-15 00:00N 41°20' E 002°12'0 0.0
2018-Jun-14 23:30N 41°20' E 002°12'0 0.0
2018-Jun-14 23:00N 41°20' E 002°12'0 0.0
2018-Jun-14 22:30N 41°20' E 002°12'1 1.1
2018-Jun-14 22:00N 41°19' E 002°12'4 8.7
2018-Jun-14 21:30N 41°15' E 002°10'816.4
2018-Jun-14 21:00N 41°13' E 001°59'917.4
2018-Jun-14 20:30N 41°10' E 001°49'917.0
2018-Jun-14 19:59N 41°08' E 001°37'123 5.6
2018-Jun-13 21:54N 39°33' W 000°07'1013.1
2018-Jun-13 21:11N 39°25' W 000°14'312.9
2018-Jun-13 20:57N 39°25' W 000°17'2 3.7
2018-Jun-13 20:28N 39°26' W 000°19'0 0.0
2018-Jun-13 19:49N 39°26' W 000°19'0 0.0
2018-Jun-13 19:19N 39°26' W 000°19'0 0.0
2018-Jun-13 18:58N 39°26' W 000°19'0 0.0
2018-Jun-13 18:28N 39°26' W 000°19'0 0.0
2018-Jun-13 17:55N 39°26' W 000°19'0 0.0
2018-Jun-13 17:28N 39°26' W 000°19'0 0.0
2018-Jun-13 16:55N 39°26' W 000°19'0 0.0
2018-Jun-13 16:25N 39°26' W 000°19'0 0.0
2018-Jun-13 15:55N 39°26' W 000°19'0 0.2
2018-Jun-13 13:49N 39°26' W 000°19'0 0.0
2018-Jun-13 13:19N 39°26' W 000°19'0 0.0
2018-Jun-13 12:55N 39°26' W 000°19'0 0.0
2018-Jun-13 12:25N 39°26' W 000°19'0 0.0
2018-Jun-13 11:55N 39°26' W 000°19'0 0.0
2018-Jun-13 11:19N 39°26' W 000°19'0 0.0
2018-Jun-13 10:55N 39°26' W 000°19'0 0.0
2018-Jun-13 09:49N 39°26' W 000°19'0 0.0
2018-Jun-13 09:25N 39°26' W 000°19'0 0.0
2018-Jun-13 07:49N 39°26' W 000°19'0 0.0
2018-Jun-13 07:25N 39°26' W 000°19'0 0.0
2018-Jun-13 06:55N 39°26' W 000°19'0 0.0
2018-Jun-13 06:19N 39°26' W 000°19'0 0.0
2018-Jun-13 01:25N 39°26' W 000°19'0 0.0
2018-Jun-13 00:58N 39°26' W 000°19'0 0.0
2018-Jun-13 00:19N 39°26' W 000°19'0 0.0
2018-Jun-12 23:55N 39°26' W 000°19'0 0.0
2018-Jun-12 23:28N 39°26' W 000°19'0 1.0
2018-Jun-12 23:00N 39°26' W 000°19'2 4.6
2018-Jun-12 22:30N 39°25' W 000°17'2 3.7
2018-Jun-12 22:00N 39°24' W 000°15'5612.5
2018-Jun-12 17:32N 38°36' E 000°22'014.3
2018-Jun-12 17:30N 38°35' E 000°22'714.2
2018-Jun-12 17:00N 38°29' E 000°16'714.4
2018-Jun-12 16:30N 38°23' E 000°11'714.7
2018-Jun-12 16:00N 38°17' E 000°06'714.6
2018-Jun-12 15:30N 38°11' E 000°01'714.7
2018-Jun-12 15:01N 38°05' W 000°04'  

Dump ship's entire track history